Time;durP1;ratioP1;P1;durP2;ratioP2;P2;SDS_P1;SDS_P2;PMS_P1;PMS_P2;Temp;Humidity;BMP_temperature;BMP_pressure;BME280_temperature;BME280_humidity;BME280_pressure;Samples;Min_cycle;Max_cycle;Signal;HPM_P1;HPM_P2
2024/04/11 00:01:28;;;;;;;13.77;3.00;;;;;;;10.55;100.00;102753.59;5346935;26;20001;-69
2024/04/11 00:03:55;;;;;;;15.48;3.25;;;;;;;10.55;100.00;102755.34;5344984;26;20437;-66
2024/04/11 00:06:20;;;;;;;14.27;3.00;;;;;;;10.55;100.00;102766.81;5346507;26;20008;-64
2024/04/11 00:08:45;;;;;;;12.07;2.80;;;;;;;10.61;100.00;102760.84;5346566;26;20343;-70
2024/04/11 00:11:12;;;;;;;16.02;3.00;;;;;;;10.63;100.00;102753.88;5346532;26;20003;-68
2024/04/11 00:13:38;;;;;;;15.13;3.08;;;;;;;10.69;100.00;102748.78;5344480;26;20029;-68
2024/04/11 00:16:04;;;;;;;13.60;2.95;;;;;;;10.68;100.00;102746.09;5346360;26;20000;-70
2024/04/11 00:18:30;;;;;;;16.85;3.22;;;;;;;10.72;100.00;102748.88;5388281;26;19996;-65
2024/04/11 00:20:55;;;;;;;15.23;3.15;;;;;;;10.72;100.00;102743.59;5346381;26;20452;-70
2024/04/11 00:23:22;;;;;;;12.02;3.10;;;;;;;10.76;100.00;102740.22;5346412;26;19993;-66
2024/04/11 00:25:55;;;;;;;15.07;2.90;;;;;;;10.89;100.00;102736.22;5346189;26;20074;-66
2024/04/11 00:28:22;;;;;;;14.25;2.80;;;;;;;10.86;100.00;102727.28;5339695;26;20056;-64
2024/04/11 00:30:48;;;;;;;14.52;2.80;;;;;;;10.94;100.00;102728.44;5346681;26;20001;-66
2024/04/11 00:33:13;;;;;;;12.27;3.03;;;;;;;10.97;100.00;102708.25;5346176;26;20044;-65
2024/04/11 00:35:39;;;;;;;13.18;2.70;;;;;;;10.99;100.00;102726.81;5345915;26;20007;-65
2024/04/11 00:38:10;;;;;;;15.10;2.83;;;;;;;11.03;100.00;102726.09;5346138;26;20012;-75
2024/04/11 00:40:37;;;;;;;14.65;2.97;;;;;;;10.98;100.00;102719.75;5346224;26;20012;-71
2024/04/11 00:43:09;;;;;;;12.05;2.70;;;;;;;11.06;100.00;102717.34;5345809;26;20021;-65
2024/04/11 00:45:42;;;;;;;10.85;2.60;;;;;;;11.11;100.00;102716.66;5346448;26;20005;-68
2024/04/11 00:48:09;;;;;;;14.18;3.00;;;;;;;11.11;100.00;102726.31;5346156;26;20070;-69
2024/04/11 00:50:34;;;;;;;11.35;2.70;;;;;;;11.10;100.00;102732.47;5345890;26;19997;-67
2024/04/11 00:53:01;;;;;;;18.30;3.00;;;;;;;11.12;100.00;102723.72;5345979;26;20317;-67
2024/04/11 00:55:27;;;;;;;15.35;2.90;;;;;;;11.12;100.00;102744.91;5345927;26;20001;-67
2024/04/11 00:57:53;;;;;;;14.60;2.78;;;;;;;11.21;100.00;102743.41;5347455;26;19993;-69
2024/04/11 01:00:19;;;;;;;14.00;2.92;;;;;;;11.19;100.00;102742.47;5349417;26;20003;-65
2024/04/11 01:02:44;;;;;;;16.17;2.78;;;;;;;11.24;100.00;102747.06;5349029;26;20436;-65
2024/04/11 01:05:10;;;;;;;18.25;3.20;;;;;;;11.20;100.00;102750.47;5349217;26;20009;-67
2024/04/11 01:07:36;;;;;;;11.98;2.60;;;;;;;11.29;100.00;102742.78;5348695;26;19992;-65
2024/04/11 01:10:01;;;;;;;13.43;3.00;;;;;;;11.28;100.00;102741.00;5349108;26;20001;-72
2024/04/11 01:12:26;;;;;;;15.43;2.90;;;;;;;11.24;100.00;102747.06;5347099;26;19993;-74
2024/04/11 01:14:52;;;;;;;15.35;2.90;;;;;;;11.25;100.00;102738.25;5348770;26;20000;-75
2024/04/11 01:17:17;;;;;;;16.42;3.38;;;;;;;11.23;100.00;102736.44;5349183;26;20464;-75
2024/04/11 01:19:44;;;;;;;15.52;3.10;;;;;;;11.25;100.00;102730.31;5349149;26;20075;-72
2024/04/11 01:22:10;;;;;;;16.75;3.00;;;;;;;11.22;100.00;102738.16;5347425;26;19996;-71
2024/04/11 01:24:42;;;;;;;12.43;2.65;;;;;;;11.21;100.00;102725.75;5347405;26;20419;-75
2024/04/11 01:27:09;;;;;;;11.90;2.80;;;;;;;11.26;100.00;102731.22;5348537;26;20015;-75
2024/04/11 01:29:38;;;;;;;13.77;2.80;;;;;;;11.28;100.00;102718.91;5349015;26;20329;-69
2024/04/11 01:32:05;;;;;;;11.10;2.67;;;;;;;11.33;100.00;102712.91;5348974;26;20070;-65
2024/04/11 01:34:30;;;;;;;14.23;3.00;;;;;;;11.28;100.00;102713.63;5348892;26;20002;-65
2024/04/11 01:36:57;;;;;;;13.63;2.90;;;;;;;11.28;100.00;102716.28;5348762;26;19997;-64
2024/04/11 01:39:24;;;;;;;16.52;3.08;;;;;;;11.32;100.00;102704.94;5348894;26;20174;-65
2024/04/11 01:41:49;;;;;;;17.67;3.20;;;;;;;11.29;100.00;102694.25;5348733;26;20439;-65
2024/04/11 01:44:15;;;;;;;14.57;2.90;;;;;;;11.26;100.00;102694.16;5348485;26;20048;-69
2024/04/11 01:46:40;;;;;;;17.17;3.20;;;;;;;11.21;100.00;102699.28;5346969;26;20439;-69
2024/04/11 01:49:05;;;;;;;15.25;2.95;;;;;;;11.22;100.00;102697.56;5346561;26;20009;-65
2024/04/11 01:51:31;;;;;;;15.70;3.13;;;;;;;11.25;100.00;102713.53;5347036;26;19992;-68
2024/04/11 01:53:56;;;;;;;14.30;2.90;;;;;;;11.28;100.00;102705.69;5348253;26;20008;-64
2024/04/11 01:56:24;;;;;;;15.40;3.15;;;;;;;11.24;100.00;102707.34;5348280;26;20521;-66
2024/04/11 01:58:49;;;;;;;14.30;2.95;;;;;;;11.21;100.00;102698.41;5348454;26;20016;-65
2024/04/11 02:01:19;;;;;;;13.88;3.10;;;;;;;11.26;100.00;102704.75;5348127;26;20428;-65
2024/04/11 02:03:45;;;;;;;14.15;2.80;;;;;;;11.23;100.00;102718.78;5346604;26;20001;-64
2024/04/11 02:06:11;;;;;;;17.98;3.03;;;;;;;11.23;100.00;102721.44;5348308;26;19997;-64
2024/04/11 02:08:37;;;;;;;14.52;2.88;;;;;;;11.24;100.00;102722.31;5347523;26;20309;-64
2024/04/11 02:11:04;;;;;;;14.63;3.00;;;;;;;11.28;100.00;102706.56;5348119;26;20008;-64
2024/04/11 02:13:30;;;;;;;18.40;3.30;;;;;;;11.28;100.00;102706.56;5348483;26;20095;-64
2024/04/11 02:15:55;;;;;;;16.70;3.00;;;;;;;11.28;100.00;102703.03;5347708;26;20003;-65
2024/04/11 02:18:21;;;;;;;16.08;3.13;;;;;;;11.24;100.00;102693.19;5348239;26;20336;-64
2024/04/11 02:20:47;;;;;;;14.52;3.10;;;;;;;11.20;100.00;102694.88;5348440;26;19993;-65
2024/04/11 02:23:13;;;;;;;13.73;3.10;;;;;;;11.18;100.00;102685.06;5348049;26;20008;-65
2024/04/11 02:25:39;;;;;;;16.52;3.00;;;;;;;11.12;100.00;102696.38;5348043;26;19992;-67
2024/04/11 02:28:05;;;;;;;13.57;2.90;;;;;;;11.09;100.00;102705.09;5347949;26;20001;-64
2024/04/11 02:30:31;;;;;;;15.15;3.10;;;;;;;11.06;100.00;102705.00;5348026;26;19993;-64
2024/04/11 02:32:57;;;;;;;14.13;3.00;;;;;;;11.03;100.00;102707.56;5347564;26;20075;-67
2024/04/11 02:35:22;;;;;;;14.30;2.90;;;;;;;10.96;100.00;102709.09;5347870;26;20008;-75
2024/04/11 02:37:54;;;;;;;14.90;2.83;;;;;;;10.93;100.00;102710.75;5348105;26;19998;-70
2024/04/11 02:40:20;;;;;;;15.45;2.78;;;;;;;10.90;100.00;102710.66;5347851;26;20005;-64
2024/04/11 02:42:46;;;;;;;14.43;3.03;;;;;;;10.91;100.00;102709.81;5347787;26;20001;-64
2024/04/11 02:45:14;;;;;;;15.40;3.05;;;;;;;10.93;100.00;102710.75;5346038;26;20433;-64
2024/04/11 02:47:41;;;;;;;15.02;2.90;;;;;;;10.91;100.00;102701.88;5347565;26;20329;-64
2024/04/11 02:50:06;;;;;;;14.68;3.03;;;;;;;10.94;100.00;102700.22;5347923;26;20021;-74
2024/04/11 02:52:33;;;;;;;14.25;2.95;;;;;;;10.94;100.00;102707.28;5347473;26;20336;-73
2024/04/11 02:54:58;;;;;;;15.27;3.10;;;;;;;10.94;100.00;102710.81;5345743;26;19993;-72
2024/04/11 02:57:23;;;;;;;14.25;3.10;;;;;;;10.92;100.00;102709.88;5347521;26;20047;-66
2024/04/11 02:59:53;;;;;;;14.48;2.70;;;;;;;10.95;100.00;102707.31;5347806;26;19993;-77
2024/04/11 03:02:23;;;;;;;15.77;2.92;;;;;;;10.96;100.00;102706.44;5348078;26;20001;-76
2024/04/11 03:04:51;;;;;;;15.02;3.28;;;;;;;10.97;100.00;102712.66;5348124;26;20321;-71
2024/04/11 03:07:18;;;;;;;17.30;2.90;;;;;;;10.95;100.00;102703.75;5347541;26;20008;-73
2024/04/11 03:09:43;;;;;;;15.90;3.00;;;;;;;10.90;100.00;102700.06;5347487;26;20387;-65
2024/04/11 03:12:08;;;;;;;14.80;2.85;;;;;;;10.85;100.00;102701.66;5345641;26;20000;-64
2024/04/11 03:14:34;;;;;;;15.48;3.05;;;;;;;10.84;100.00;102694.59;5347611;26;20001;-65
2024/04/11 03:16:59;;;;;;;14.43;2.97;;;;;;;10.85;100.00;102701.66;5347177;26;20435;-68
2024/04/11 03:19:25;;;;;;;17.60;3.00;;;;;;;10.85;100.00;102691.06;5347361;26;20012;-64
2024/04/11 03:21:50;;;;;;;15.30;3.15;;;;;;;10.81;100.00;102696.28;5382347;26;20328;-66
2024/04/11 03:24:16;;;;;;;16.60;3.30;;;;;;;10.84;100.00;102697.25;5343935;26;20009;-69
2024/04/11 03:26:41;;;;;;;13.32;2.75;;;;;;;10.85;100.00;102712.25;5347564;26;20004;-65
2024/04/11 03:29:08;;;;;;;13.68;2.90;;;;;;;10.87;100.00;102699.97;5347181;26;20080;-68
2024/04/11 03:31:33;;;;;;;17.90;2.97;;;;;;;10.86;100.00;102698.19;5347092;26;19997;-70
2024/04/11 03:34:04;;;;;;;15.70;3.20;;;;;;;10.86;100.00;102698.19;5347034;26;20450;-68
2024/04/11 03:36:32;;;;;;;14.38;2.88;;;;;;;10.90;100.00;102695.66;5346860;26;20432;-65
2024/04/11 03:38:57;;;;;;;14.43;2.90;;;;;;;10.88;100.00;102693.81;5347060;26;20007;-67
2024/04/11 03:41:22;;;;;;;16.83;3.30;;;;;;;10.89;100.00;102692.97;5347164;26;19997;-68
2024/04/11 03:43:53;;;;;;;14.57;2.90;;;;;;;10.89;100.00;102692.97;5347111;26;20466;-70
2024/04/11 03:46:21;;;;;;;15.02;3.00;;;;;;;10.90;100.00;102697.44;5346617;26;20004;-70
2024/04/11 03:48:49;;;;;;;16.00;2.85;;;;;;;10.87;100.00;102678.81;5347064;26;20023;-69
2024/04/11 03:51:20;;;;;;;14.75;2.85;;;;;;;10.78;100.00;102675.00;5346922;26;20313;-70
2024/04/11 03:53:47;;;;;;;13.88;2.80;;;;;;;10.76;100.00;102684.66;5344863;26;20419;-65
2024/04/11 03:56:18;;;;;;;12.95;3.10;;;;;;;10.75;100.00;102685.50;5346773;26;19997;-71
2024/04/11 03:58:45;;;;;;;14.50;2.70;;;;;;;10.79;100.00;102682.09;5346639;26;20000;-71
2024/04/11 04:01:15;;;;;;;14.57;3.17;;;;;;;10.76;100.00;102682.00;5347023;26;20001;-78
2024/04/11 04:03:47;;;;;;;15.85;3.05;;;;;;;10.80;100.00;102683.91;5346842;26;20069;-75
2024/04/11 04:06:13;;;;;;;14.85;2.90;;;;;;;10.83;100.00;102675.16;5346671;26;20003;-75
2024/04/11 04:08:45;;;;;;;17.48;3.20;;;;;;;10.74;100.00;102670.47;5346657;26;20008;-78
2024/04/11 04:11:11;;;;;;;;;;;;;;;10.86;100.00;102671.72;5347449;26;19996;-78
2024/04/11 04:13:38;;;;;;;14.52;3.13;;;;;;;10.75;100.00;102672.28;5345258;26;19934;-78
2024/04/11 04:16:28;;;;;;;11.95;2.70;;;;;;;10.74;100.00;102664.28;5346478;26;20324;-77
2024/04/11 04:18:54;;;;;;;14.15;2.92;;;;;;;10.64;100.00;102650.78;5339954;26;20451;-78
2024/04/11 04:21:20;;;;;;;15.70;3.15;;;;;;;10.68;100.00;102651.75;5346678;26;20482;-78
2024/04/11 04:23:54;;;;;;;15.57;2.80;;;;;;;10.67;100.00;102649.94;5346307;26;20070;-75
2024/04/11 04:26:21;;;;;;;13.68;2.95;;;;;;;10.70;100.00;102649.16;5346883;26;19993;-77
2024/04/11 04:28:48;;;;;;;14.15;2.85;;;;;;;10.70;100.00;102652.69;5346280;26;19997;-77
2024/04/11 04:31:23;;;;;;;14.98;3.00;;;;;;;10.72;100.00;102661.59;5346346;26;20007;-75
2024/04/11 04:33:59;;;;;;;10.50;2.65;;;;;;;10.76;100.00;102657.28;5349303;26;20012;-75
2024/04/11 04:36:26;;;;;;;11.98;2.83;;;;;;;10.80;100.00;102652.16;5342864;26;20474;-75
2024/04/11 04:38:53;;;;;;;14.52;2.90;;;;;;;10.79;100.00;102647.72;5342526;26;20009;-78
2024/04/11 04:41:25;;;;;;;14.07;3.00;;;;;;;10.79;100.00;102645.06;5349609;26;20000;-78
2024/04/11 04:43:53;;;;;;;14.65;2.95;;;;;;;10.81;100.00;102643.34;5349491;26;20008;-78
2024/04/11 04:46:20;;;;;;;15.95;2.90;;;;;;;10.80;100.00;102653.91;5349226;26;19997;-78
2024/04/11 04:48:46;;;;;;;13.05;2.72;;;;;;;10.86;100.00;102646.16;5349359;26;20432;-77
2024/04/11 04:51:12;;;;;;;14.63;3.10;;;;;;;10.78;100.00;102655.59;5349793;26;20008;-75
2024/04/11 04:53:38;;;;;;;16.25;3.08;;;;;;;10.78;100.00;102647.66;5349301;26;20031;-72
2024/04/11 04:56:09;;;;;;;13.38;2.80;;;;;;;10.76;100.00;102634.41;5349444;26;19997;-77
2024/04/11 04:58:36;;;;;;;14.20;2.97;;;;;;;10.79;100.00;102631.84;5349533;26;20039;-76
2024/04/11 05:01:02;;;;;;;14.57;2.85;;;;;;;10.79;100.00;102644.16;5349529;26;20008;-65
2024/04/11 05:03:28;;;;;;;14.30;2.88;;;;;;;10.76;100.00;102638.78;5349431;26;20351;-65
2024/04/11 05:05:54;;;;;;;13.82;2.90;;;;;;;10.77;100.00;102643.22;5349482;26;19997;-75
2024/04/11 05:08:23;;;;;;;15.07;2.70;;;;;;;10.71;100.00;102638.63;5349227;26;19997;-72
2024/04/11 05:10:55;;;;;;;16.23;3.10;;;;;;;10.71;100.00;102641.28;5348788;26;20428;-77
2024/04/11 05:13:26;;;;;;;15.75;2.90;;;;;;;10.78;100.00;102645.91;5349154;26;20002;-76
2024/04/11 05:15:59;;;;;;;14.70;2.78;;;;;;;10.77;100.00;102657.34;5348842;26;19997;-77
2024/04/11 05:18:24;;;;;;;17.40;3.10;;;;;;;10.76;100.00;102655.56;5349052;26;20033;-65
2024/04/11 05:20:52;;;;;;;15.90;2.90;;;;;;;10.77;100.00;102657.34;5348904;26;20048;-68
2024/04/11 05:23:19;;;;;;;15.30;2.75;;;;;;;10.76;100.00;102654.63;5348885;26;20008;-71
2024/04/11 05:25:45;;;;;;;15.43;2.88;;;;;;;10.75;100.00;102661.69;5346779;26;20025;-66
2024/04/11 05:28:12;;;;;;;12.88;2.60;;;;;;;10.78;100.00;102663.53;5348864;26;19993;-68
2024/04/11 05:30:40;;;;;;;14.15;2.70;;;;;;;10.76;100.00;102671.44;5348733;26;19996;-71
2024/04/11 05:33:08;;;;;;;11.68;2.78;;;;;;;10.78;100.00;102675.00;5348741;26;20369;-69
2024/04/11 05:35:34;;;;;;;15.40;3.00;;;;;;;10.76;100.00;102681.09;5348281;26;19997;-67
2024/04/11 05:38:00;;;;;;;13.43;2.85;;;;;;;10.75;100.00;102685.50;5348842;26;20004;-71
2024/04/11 05:40:25;;;;;;;15.45;2.90;;;;;;;10.78;100.00;102684.72;5348780;26;20003;-67
2024/04/11 05:42:50;;;;;;;14.32;2.70;;;;;;;10.85;100.00;102691.06;5346974;26;19993;-67
2024/04/11 05:45:19;;;;;;;15.18;2.92;;;;;;;10.85;100.00;102696.38;5347763;26;20001;-67
2024/04/11 05:47:45;;;;;;;15.38;2.95;;;;;;;10.84;100.00;102700.78;5348199;26;19993;-69
2024/04/11 05:50:15;;;;;;;15.02;2.80;;;;;;;10.85;100.00;102702.56;5390379;26;20011;-66
2024/04/11 05:52:47;;;;;;;16.60;3.30;;;;;;;10.87;100.00;102710.56;5348389;26;19997;-65
2024/04/11 05:55:14;;;;;;;;;;;;;;;10.95;100.00;102715.25;5349006;26;19997;-68
2024/04/11 05:57:42;;;;;;;14.50;3.10;;;;;;;10.87;100.00;102711.44;5348095;26;19991;-66
2024/04/11 06:00:08;;;;;;;14.65;2.90;;;;;;;10.88;100.00;102720.28;5348594;26;20007;-69
2024/04/11 06:02:38;;;;;;;15.30;2.80;;;;;;;10.90;100.00;102729.19;5348043;26;19997;-70
2024/04/11 06:05:06;;;;;;;13.57;2.78;;;;;;;10.90;100.00;102727.44;5348065;26;20448;-67
2024/04/11 06:07:31;;;;;;;15.32;2.80;;;;;;;10.92;100.00;102738.06;5348318;26;20033;-66
2024/04/11 06:10:00;;;;;;;13.70;2.92;;;;;;;10.92;100.00;102731.03;5346717;26;20067;-66
2024/04/11 06:12:26;;;;;;;15.88;3.00;;;;;;;10.92;100.00;102738.06;5341505;26;20000;-70
2024/04/11 06:14:53;;;;;;;14.57;2.92;;;;;;;10.92;100.00;102736.31;5347834;26;19997;-65
2024/04/11 06:17:19;;;;;;;14.43;3.00;;;;;;;10.93;100.00;102747.81;5347871;26;19997;-67
2024/04/11 06:19:45;;;;;;;14.13;2.80;;;;;;;10.80;100.00;102744.75;5347893;26;20025;-65
2024/04/11 06:22:11;;;;;;;12.75;3.10;;;;;;;10.49;100.00;102749.84;5343294;26;20012;-69
2024/04/11 06:24:37;;;;;;;14.77;3.03;;;;;;;10.23;100.00;102757.69;5347948;26;20008;-70
2024/04/11 06:27:04;;;;;;;15.80;3.00;;;;;;;9.81;100.00;102752.63;5347664;26;20001;-65
2024/04/11 06:29:31;;;;;;;17.45;3.30;;;;;;;9.50;100.00;102754.97;5347699;26;19996;-64
2024/04/11 06:32:00;;;;;;;16.55;3.10;;;;;;;9.33;100.00;102764.88;5347821;26;19992;-67
2024/04/11 06:34:27;;;;;;;16.02;3.42;;;;;;;9.20;100.00;102771.41;5341304;26;20391;-64
2024/04/11 06:36:54;;;;;;;16.35;3.30;;;;;;;9.15;100.00;102778.22;5347773;26;20328;-65
2024/04/11 06:39:19;;;;;;;15.75;3.40;;;;;;;9.10;100.00;102784.16;5346241;26;20001;-64
2024/04/11 06:41:44;;;;;;;17.13;3.35;;;;;;;9.11;100.00;102788.59;5347862;26;20502;-65
2024/04/11 06:44:10;;;;;;;14.63;3.45;;;;;;;9.15;100.00;102779.97;5347330;26;20433;-64
2024/04/11 06:46:37;;;;;;;16.50;3.42;;;;;;;9.17;100.00;102783.56;5347609;26;19996;-65
2024/04/11 06:49:02;;;;;;;19.30;3.60;;;;;;;9.21;100.00;102781.09;5347626;26;20029;-66
2024/04/11 06:51:30;;;;;;;17.20;3.55;;;;;;;9.28;100.00;102784.91;5347973;26;20304;-75
2024/04/11 06:53:57;;;;;;;17.75;3.70;;;;;;;9.30;100.00;102791.13;5347959;26;20001;-76
2024/04/11 06:56:24;;;;;;;15.43;3.40;;;;;;;9.31;100.00;102792.94;5347521;26;20066;-73
2024/04/11 06:58:50;;;;;;;18.00;3.65;;;;;;;9.34;100.00;102778.97;5347557;26;20042;-76
2024/04/11 07:01:16;;;;;;;18.20;3.50;;;;;;;9.40;100.00;102788.03;5348116;26;19993;-76
2024/04/11 07:03:49;;;;;;;18.08;3.78;;;;;;;9.41;100.00;102779.28;5345881;26;20440;-76
2024/04/11 07:08:48;;;;;;;16.27;3.85;;;;;;;9.59;100.00;102779.09;5347957;26;19993;-74
2024/04/11 07:11:19;;;;;;;15.68;3.58;;;;;;;9.75;100.00;102783.22;5348084;26;20007;-76
2024/04/11 07:13:45;;;;;;;15.77;3.22;;;;;;;10.04;100.00;102793.13;5347780;26;20004;-73
2024/04/11 07:16:16;;;;;;;16.02;3.42;;;;;;;10.34;100.00;102779.25;5347094;26;20010;-65
2024/04/11 07:18:54;;;;;;;16.17;3.47;;;;;;;10.53;100.00;102786.09;5347669;26;20066;-76
2024/04/11 07:21:25;;;;;;;13.77;3.20;;;;;;;10.66;100.00;102784.78;5347982;26;19996;-67
2024/04/11 07:23:54;;;;;;;16.90;3.53;;;;;;;10.73;100.00;102782.44;5347026;26;20455;-70
2024/04/11 07:26:22;;;;;;;16.90;3.53;;;;;;;10.80;100.00;102786.16;5347037;26;20025;-66
2024/04/11 07:28:48;;;;;;;17.52;3.70;;;;;;;10.85;100.00;102792.53;5344248;26;20020;-65
2024/04/11 07:31:17;;;;;;;15.77;3.42;;;;;;;10.89;100.00;102788.22;5346761;26;20339;-65
2024/04/11 07:33:43;;;;;;;17.95;3.67;;;;;;;10.91;100.00;102802.44;5346556;26;19996;-65
2024/04/11 07:36:09;;;;;;;16.52;3.50;;;;;;;10.94;100.00;102794.59;5346363;26;20140;-67
2024/04/11 07:38:38;;;;;;;16.67;3.75;;;;;;;10.91;100.00;102798.03;5346702;26;20008;-66
2024/04/11 07:41:16;;;;;;;18.55;4.40;;;;;;;10.77;100.00;102809.88;5340576;26;19993;-67
2024/04/11 07:43:47;;;;;;;17.55;3.88;;;;;;;10.43;100.00;102812.22;5347165;26;20032;-68
2024/04/11 07:46:15;;;;;;;15.30;3.25;;;;;;;10.24;100.00;102815.91;5346911;26;20000;-65
2024/04/11 07:48:47;;;;;;;15.50;3.40;;;;;;;10.18;100.00;102827.97;5346880;26;20510;-64
2024/04/11 07:51:13;;;;;;;17.15;3.53;;;;;;;10.07;100.00;102830.22;5347071;26;20011;-66
2024/04/11 07:53:41;;;;;;;17.20;3.67;;;;;;;10.03;100.00;102831.88;5346838;26;20066;-65
2024/04/11 07:56:09;;;;;;;15.88;3.60;;;;;;;9.98;100.00;102845.75;5346882;26;20078;-66
2024/04/11 07:58:34;;;;;;;17.67;4.00;;;;;;;10.01;100.00;102856.44;5340043;26;20395;-70
2024/04/11 08:01:01;;;;;;;18.30;3.70;;;;;;;9.95;100.00;102857.97;5347142;26;20021;-65
2024/04/11 08:03:27;;;;;;;14.95;3.50;;;;;;;9.95;100.00;102857.09;5346741;26;20067;-69
2024/04/11 08:05:53;;;;;;;17.40;3.80;;;;;;;9.93;100.00;102862.31;5346403;26;20398;-71
2024/04/11 08:08:20;;;;;;;15.27;3.60;;;;;;;9.99;100.00;102868.66;5345862;26;19997;-66
2024/04/11 08:10:49;;;;;;;18.63;4.00;;;;;;;10.05;100.00;102876.84;5346666;26;20001;-65
2024/04/11 08:13:15;;;;;;;19.52;3.92;;;;;;;10.09;100.00;102877.03;5346260;26;19993;-65
2024/04/11 08:15:40;;;;;;;18.75;3.95;;;;;;;10.07;100.00;102873.41;5345848;26;19997;-66
2024/04/11 08:18:08;;;;;;;16.63;3.70;;;;;;;10.13;100.00;102880.66;5346463;26;19997;-67
2024/04/11 08:20:34;;;;;;;15.63;3.85;;;;;;;10.15;100.00;102880.72;5346661;26;20001;-69
2024/04/11 08:22:59;;;;;;;17.77;4.13;;;;;;;10.20;100.00;102881.81;5346537;26;20004;-65
2024/04/11 08:25:25;;;;;;;17.10;3.95;;;;;;;10.22;100.00;102898.63;5346446;26;20008;-65
2024/04/11 08:27:50;;;;;;;17.92;4.20;;;;;;;10.20;100.00;102895.91;5346143;26;19997;-64
2024/04/11 08:30:16;;;;;;;16.73;4.07;;;;;;;10.23;100.00;102901.31;5344842;26;19997;-68
2024/04/11 08:32:45;;;;;;;16.13;4.10;;;;;;;10.20;100.00;102905.59;5346041;26;19993;-65
2024/04/11 08:35:12;;;;;;;19.60;4.35;;;;;;;10.25;100.00;102910.22;5345840;26;20008;-64
2024/04/11 08:37:38;;;;;;;18.10;4.55;;;;;;;10.31;100.00;102917.50;5346110;26;19993;-65
2024/04/11 08:40:10;;;;;;;16.38;4.10;;;;;;;10.28;100.00;102935.84;5345855;26;20001;-64
2024/04/11 08:42:40;;;;;;;18.90;4.60;;;;;;;10.29;100.00;102928.03;5339535;26;20033;-64
2024/04/11 08:45:06;;;;;;;17.55;4.40;;;;;;;10.32;100.00;102928.97;5339526;26;20440;-64
2024/04/11 08:47:33;;;;;;;18.33;4.40;;;;;;;10.35;100.00;102924.72;5346251;26;19997;-64
2024/04/11 08:49:59;;;;;;;16.48;4.20;;;;;;;10.38;100.00;102931.88;5339595;26;20019;-65
2024/04/11 08:52:29;;;;;;;18.70;4.45;;;;;;;10.49;100.00;102934.94;5340104;26;20013;-64
2024/04/11 08:54:55;;;;;;;17.67;5.07;;;;;;;10.61;100.00;102941.56;5345051;26;20005;-64
2024/04/11 08:57:20;;;;;;;18.50;4.78;;;;;;;10.70;100.00;102938.38;5339685;26;20422;-65
2024/04/11 08:59:47;;;;;;;18.23;4.50;;;;;;;10.94;100.00;102934.84;5345365;26;20005;-64
2024/04/11 09:02:13;;;;;;;17.10;4.50;;;;;;;11.14;100.00;102940.84;5345546;26;19996;-75
2024/04/11 09:04:38;;;;;;;18.85;4.30;;;;;;;11.25;100.00;102935.91;5345225;26;20000;-73
2024/04/11 09:07:04;;;;;;;18.98;4.50;;;;;;;11.39;100.00;102932.00;5345394;26;20427;-75
2024/04/11 09:09:30;;;;;;;17.02;4.13;;;;;;;11.45;100.00;102921.59;5345752;26;20013;-74
2024/04/11 09:11:56;;;;;;;16.40;4.05;;;;;;;11.59;100.00;102923.81;5345689;26;20366;-74
2024/04/11 09:14:23;;;;;;;15.10;4.22;;;;;;;11.65;100.00;102938.16;5345481;26;19997;-71
2024/04/11 09:17:00;;;;;;;14.63;4.00;;;;;;;11.66;100.00;102939.06;5345460;26;20001;-74
2024/04/11 09:19:26;;;;;;;18.35;4.07;;;;;;;11.66;100.00;102944.38;5339917;26;20004;-65
2024/04/11 09:21:53;;;;;;;18.65;4.10;;;;;;;11.69;100.00;102941.81;5348757;26;20066;-64
2024/04/11 09:24:18;;;;;;;18.42;4.00;;;;;;;11.84;100.00;102934.38;5349224;26;20007;-65
2024/04/11 09:26:44;;;;;;;16.80;3.95;;;;;;;12.06;100.00;102934.19;5348618;26;20017;-70
2024/04/11 09:29:13;;;;;;;14.65;3.60;;;;;;;12.28;100.00;102935.75;5349146;26;20440;-76
2024/04/11 09:31:39;;;;;;;17.42;3.90;;;;;;;12.30;100.00;102940.25;5349342;26;20052;-66
2024/04/11 09:34:14;;;;;;;13.65;3.75;;;;;;;12.30;100.00;102942.00;5349082;26;20021;-70
2024/04/11 09:36:50;;;;;;;17.60;3.90;;;;;;;12.25;100.00;102960.44;5349067;26;19997;-76
2024/04/11 09:39:46;;;;;;;14.90;3.72;;;;;;;12.32;100.00;102927.03;5348711;26;20008;-77
2024/04/11 09:42:19;;;;;;;17.42;4.00;;;;;;;12.47;100.00;102939.88;5346471;26;20327;-73
2024/04/11 09:44:50;;;;;;;16.10;3.90;;;;;;;12.67;100.00;102946.66;5348496;26;20063;-66
2024/04/11 09:47:31;;;;;;;16.70;3.95;;;;;;;12.81;100.00;102944.38;5348718;26;20001;-67
2024/04/11 09:50:00;;;;;;;16.42;4.03;;;;;;;12.96;100.00;102948.31;5342479;26;20002;-68
2024/04/11 09:52:27;;;;;;;16.23;3.90;;;;;;;12.98;100.00;102933.34;5346955;26;20455;-69
2024/04/11 09:54:56;;;;;;;16.27;4.13;;;;;;;13.09;100.00;102934.53;5347775;26;19997;-66
2024/04/11 09:57:24;;;;;;;17.38;3.90;;;;;;;13.19;100.00;102944.56;5348320;26;19997;-68
2024/04/11 09:59:55;;;;;;;15.45;3.95;;;;;;;13.23;100.00;102949.06;5348364;26;20009;-69
2024/04/11 10:02:24;;;;;;;16.05;3.90;;;;;;;13.35;100.00;102948.56;5348462;26;19996;-68
2024/04/11 10:04:56;;;;;;;16.92;4.18;;;;;;;13.45;100.00;102956.75;5348060;26;20001;-70
2024/04/11 10:07:24;;;;;;;13.47;4.00;;;;;;;13.39;100.00;102960.16;5348330;26;20070;-69
2024/04/11 10:09:52;;;;;;;15.00;4.60;;;;;;;13.37;100.00;102956.56;5388890;26;20310;-64
2024/04/11 10:12:19;;;;;;;16.60;4.40;;;;;;;13.35;100.00;102960.91;5347974;26;20009;-64
2024/04/11 10:14:56;;;;;;;17.60;4.88;;;;;;;13.23;100.00;102965.00;5340380;26;19997;-65
2024/04/11 10:17:28;;;;;;;16.80;4.88;;;;;;;13.17;100.00;102964.84;5339947;26;20041;-65
2024/04/11 10:19:59;;;;;;;18.45;5.25;;;;;;;13.19;100.00;102976.44;5348084;26;20008;-66
2024/04/11 10:22:25;;;;;;;16.50;5.28;;;;;;;13.14;100.00;102961.22;5347857;26;19993;-66
2024/04/11 10:25:07;;;;;;;17.67;5.45;;;;;;;13.17;100.00;102964.84;5346522;26;20340;-64
2024/04/11 10:27:37;;;;;;;20.08;5.90;;;;;;;13.09;100.00;102974.34;5338067;26;19997;-65
2024/04/11 10:30:05;;;;;;;18.45;5.93;;;;;;;13.12;100.00;102966.50;5344544;26;20013;-69
2024/04/11 10:32:35;;;;;;;19.00;6.00;;;;;;;13.16;100.00;102968.34;5348062;26;20075;-66
2024/04/11 10:35:05;;;;;;;17.77;6.00;;;;;;;13.28;100.00;102988.16;5348105;26;20004;-69
2024/04/11 10:37:33;;;;;;;19.08;6.20;;;;;;;13.36;100.00;102991.94;5347928;26;19993;-70
2024/04/11 10:40:00;;;;;;;18.77;6.05;;;;;;;13.41;100.00;103003.59;5347926;26;20327;-66
2024/04/11 10:42:39;;;;;;;18.80;6.57;;;;;;;13.38;100.00;103009.75;5347303;26;20005;-66
2024/04/11 10:45:11;;;;;;;19.00;6.50;;;;;;;13.22;100.00;103021.66;5346332;26;20008;-65
2024/04/11 10:47:38;;;;;;;18.42;6.57;;;;;;;13.16;100.00;103010.84;5341556;26;19997;-65
2024/04/11 10:50:13;;;;;;;20.13;6.88;;;;;;;13.16;100.00;103017.91;5340996;26;20082;-65
2024/04/11 10:52:46;;;;;;;21.13;7.60;;;;;;;13.15;100.00;103014.38;5341812;26;20004;-65
2024/04/11 10:55:22;;;;;;;20.27;7.10;;;;;;;13.18;100.00;103013.56;5347695;26;20022;-72
2024/04/11 10:57:56;;;;;;;20.35;7.43;;;;;;;13.20;100.00;103019.81;5348170;26;20074;-70
2024/04/11 11:00:38;;;;;;;19.58;7.22;;;;;;;13.21;100.00;103024.28;5347653;26;19996;-70
2024/04/11 11:03:11;;;;;;;21.27;7.40;;;;;;;13.14;100.00;103031.16;5341016;26;20000;-75
2024/04/11 11:05:42;;;;;;;19.77;7.38;;;;;;;13.06;100.00;103014.09;5341646;26;20696;-76
2024/04/11 11:08:10;;;;;;;20.55;7.85;;;;;;;13.08;100.00;103023.91;5342125;26;20440;-68
2024/04/11 11:10:36;;;;;;;20.60;8.13;;;;;;;13.11;100.00;103027.53;5346078;26;19997;-77
2024/04/11 11:13:04;;;;;;;19.77;7.82;;;;;;;13.13;100.00;103023.16;5347697;26;19997;-76
2024/04/11 11:15:31;;;;;;;20.27;7.82;;;;;;;13.12;100.00;103024.91;5347361;26;19997;-65